sensor_id;sensor_type;location;lat;lon;timestamp;pressure;altitude;pressure_sealevel;temperature;humidity
3428;BME280;1727;42.624;23.406;2023-07-13T00:00:41;95085.97;;;25.03;59.58
3428;BME280;1727;42.624;23.406;2023-07-13T00:03:08;95082.69;;;25.01;58.96
3428;BME280;1727;42.624;23.406;2023-07-13T00:05:34;95085.56;;;24.99;58.99
3428;BME280;1727;42.624;23.406;2023-07-13T00:08:01;95084.75;;;24.99;58.64
3428;BME280;1727;42.624;23.406;2023-07-13T00:10:28;95088.44;;;24.98;58.65
3428;BME280;1727;42.624;23.406;2023-07-13T00:12:55;95078.41;;;24.87;59.19
3428;BME280;1727;42.624;23.406;2023-07-13T00:15:25;95070.94;;;24.82;59.77
3428;BME280;1727;42.624;23.406;2023-07-13T00:17:54;95089.34;;;24.79;59.18
3428;BME280;1727;42.624;23.406;2023-07-13T00:20:22;95091.69;;;24.55;61.20
3428;BME280;1727;42.624;23.406;2023-07-13T00:22:51;95078.00;;;23.86;64.50
3428;BME280;1727;42.624;23.406;2023-07-13T00:25:19;95088.31;;;23.82;64.83
3428;BME280;1727;42.624;23.406;2023-07-13T00:27:47;95091.19;;;23.67;66.67
3428;BME280;1727;42.624;23.406;2023-07-13T00:30:15;95079.22;;;23.57;67.01
3428;BME280;1727;42.624;23.406;2023-07-13T00:32:45;95087.84;;;23.39;67.73
3428;BME280;1727;42.624;23.406;2023-07-13T00:35:13;95085.16;;;23.32;68.08
3428;BME280;1727;42.624;23.406;2023-07-13T00:37:41;95081.44;;;23.40;68.83
3428;BME280;1727;42.624;23.406;2023-07-13T00:40:10;95076.31;;;23.45;69.00
3428;BME280;1727;42.624;23.406;2023-07-13T00:42:38;95065.19;;;23.55;69.43
3428;BME280;1727;42.624;23.406;2023-07-13T00:45:07;95081.50;;;23.66;69.76
3428;BME280;1727;42.624;23.406;2023-07-13T00:47:55;95078.00;;;23.79;69.77
3428;BME280;1727;42.624;23.406;2023-07-13T00:50:23;95075.53;;;23.84;70.15
3428;BME280;1727;42.624;23.406;2023-07-13T00:52:53;95080.47;;;23.87;68.87
3428;BME280;1727;42.624;23.406;2023-07-13T00:55:21;95078.41;;;23.89;66.64
3428;BME280;1727;42.624;23.406;2023-07-13T00:57:48;95081.50;;;23.93;66.52
3428;BME280;1727;42.624;23.406;2023-07-13T01:00:16;95065.00;;;23.89;65.38
3428;BME280;1727;42.624;23.406;2023-07-13T01:02:45;95061.50;;;23.89;64.53
3428;BME280;1727;42.624;23.406;2023-07-13T01:05:15;95060.25;;;23.91;64.61
3428;BME280;1727;42.624;23.406;2023-07-13T01:07:43;95064.59;;;23.92;64.58
3428;BME280;1727;42.624;23.406;2023-07-13T01:10:11;95065.63;;;23.91;64.41
3428;BME280;1727;42.624;23.406;2023-07-13T01:12:38;95058.19;;;23.93;64.58
3428;BME280;1727;42.624;23.406;2023-07-13T01:15:36;95069.13;;;23.92;64.55
3428;BME280;1727;42.624;23.406;2023-07-13T01:18:04;95065.00;;;23.89;64.02
3428;BME280;1727;42.624;23.406;2023-07-13T01:20:33;95064.38;;;23.87;64.83
3428;BME280;1727;42.624;23.406;2023-07-13T01:23:05;95064.38;;;23.94;64.54
3428;BME280;1727;42.624;23.406;2023-07-13T01:25:34;95055.28;;;23.95;64.42
3428;BME280;1727;42.624;23.406;2023-07-13T01:28:01;95060.66;;;24.01;64.33
3428;BME280;1727;42.624;23.406;2023-07-13T01:30:27;95064.19;;;24.02;64.55
3428;BME280;1727;42.624;23.406;2023-07-13T01:32:54;95065.81;;;23.96;64.14
3428;BME280;1727;42.624;23.406;2023-07-13T01:35:21;95066.22;;;23.93;64.36
3428;BME280;1727;42.624;23.406;2023-07-13T01:37:50;95062.94;;;23.91;64.15
3428;BME280;1727;42.624;23.406;2023-07-13T01:40:19;95070.13;;;23.97;64.41
3428;BME280;1727;42.624;23.406;2023-07-13T01:42:46;95069.75;;;24.00;64.12
3428;BME280;1727;42.624;23.406;2023-07-13T01:45:13;95071.78;;;23.98;63.75
3428;BME280;1727;42.624;23.406;2023-07-13T01:47:40;95073.03;;;24.02;64.06
3428;BME280;1727;42.624;23.406;2023-07-13T01:50:07;95068.91;;;24.06;63.63
3428;BME280;1727;42.624;23.406;2023-07-13T01:52:34;95066.66;;;24.03;63.95
3428;BME280;1727;42.624;23.406;2023-07-13T01:55:01;95063.34;;;23.95;63.85
3428;BME280;1727;42.624;23.406;2023-07-13T01:57:29;95059.63;;;24.02;64.28
3428;BME280;1727;42.624;23.406;2023-07-13T01:59:56;95061.50;;;24.02;64.02
3428;BME280;1727;42.624;23.406;2023-07-13T02:02:23;95065.63;;;24.04;63.50
3428;BME280;1727;42.624;23.406;2023-07-13T02:04:49;95064.78;;;24.10;63.20
3428;BME280;1727;42.624;23.406;2023-07-13T02:07:16;95067.03;;;24.14;63.09
3428;BME280;1727;42.624;23.406;2023-07-13T02:09:43;95067.44;;;24.17;63.32
3428;BME280;1727;42.624;23.406;2023-07-13T02:12:10;95074.03;;;24.15;63.10
3428;BME280;1727;42.624;23.406;2023-07-13T02:14:38;95071.97;;;24.17;63.80
3428;BME280;1727;42.624;23.406;2023-07-13T02:17:05;95068.50;;;24.09;63.65
3428;BME280;1727;42.624;23.406;2023-07-13T02:19:32;95068.50;;;24.09;63.07
3428;BME280;1727;42.624;23.406;2023-07-13T02:21:59;95069.91;;;24.12;63.33
3428;BME280;1727;42.624;23.406;2023-07-13T02:24:26;95062.91;;;24.11;63.30
3428;BME280;1727;42.624;23.406;2023-07-13T02:26:53;95063.75;;;24.05;63.36
3428;BME280;1727;42.624;23.406;2023-07-13T02:29:19;95070.38;;;24.02;63.48
3428;BME280;1727;42.624;23.406;2023-07-13T02:31:48;95068.06;;;23.99;63.35
3428;BME280;1727;42.624;23.406;2023-07-13T02:34:14;95078.19;;;23.97;63.32
3428;BME280;1727;42.624;23.406;2023-07-13T02:36:41;95080.84;;;23.97;63.08
3428;BME280;1727;42.624;23.406;2023-07-13T02:39:08;95075.31;;;23.92;63.48
3428;BME280;1727;42.624;23.406;2023-07-13T02:41:35;95079.63;;;23.93;63.25
3428;BME280;1727;42.624;23.406;2023-07-13T02:44:02;95085.81;;;23.94;63.28
3428;BME280;1727;42.624;23.406;2023-07-13T02:46:29;95068.31;;;23.85;63.45
3428;BME280;1727;42.624;23.406;2023-07-13T02:48:58;95082.13;;;23.88;63.92
3428;BME280;1727;42.624;23.406;2023-07-13T02:51:24;95075.53;;;23.84;63.70
3428;BME280;1727;42.624;23.406;2023-07-13T02:53:51;95073.66;;;23.85;64.25
3428;BME280;1727;42.624;23.406;2023-07-13T02:56:22;95083.56;;;23.84;63.80
3428;BME280;1727;42.624;23.406;2023-07-13T02:58:49;95086.88;;;23.79;64.22
3428;BME280;1727;42.624;23.406;2023-07-13T03:01:16;95085.00;;;23.80;64.43
3428;BME280;1727;42.624;23.406;2023-07-13T03:03:44;95086.66;;;23.68;64.79
3428;BME280;1727;42.624;23.406;2023-07-13T03:06:14;95086.44;;;23.63;65.73
3428;BME280;1727;42.624;23.406;2023-07-13T03:08:42;95086.44;;;23.56;66.06
3428;BME280;1727;42.624;23.406;2023-07-13T03:11:12;95082.69;;;23.24;67.85
3428;BME280;1727;42.624;23.406;2023-07-13T03:13:42;95090.66;;;23.11;68.55
3428;BME280;1727;42.624;23.406;2023-07-13T03:16:09;95090.03;;;23.09;69.37
3428;BME280;1727;42.624;23.406;2023-07-13T03:18:37;95093.13;;;23.12;69.74
3428;BME280;1727;42.624;23.406;2023-07-13T03:21:04;95094.38;;;23.10;69.68
3428;BME280;1727;42.624;23.406;2023-07-13T03:23:32;95093.78;;;23.14;69.88
3428;BME280;1727;42.624;23.406;2023-07-13T03:26:03;95097.31;;;23.28;69.65
3428;BME280;1727;42.624;23.406;2023-07-13T03:28:31;95099.00;;;23.42;70.02
3428;BME280;1727;42.624;23.406;2023-07-13T03:31:02;95104.38;;;23.56;69.33
3428;BME280;1727;42.624;23.406;2023-07-13T03:33:29;95102.13;;;23.72;68.13
3428;BME280;1727;42.624;23.406;2023-07-13T03:35:57;95095.72;;;23.93;66.74
3428;BME280;1727;42.624;23.406;2023-07-13T03:38:24;95105.00;;;24.10;65.53
3428;BME280;1727;42.624;23.406;2023-07-13T03:40:52;95101.69;;;24.35;64.69
3428;BME280;1727;42.624;23.406;2023-07-13T03:43:19;95098.09;;;24.54;63.96
3428;BME280;1727;42.624;23.406;2023-07-13T03:45:47;95096.16;;;24.81;63.56
3428;BME280;1727;42.624;23.406;2023-07-13T03:48:14;95088.44;;;24.98;62.76
3428;BME280;1727;42.624;23.406;2023-07-13T03:50:40;95085.09;;;25.16;61.79
3428;BME280;1727;42.624;23.406;2023-07-13T03:53:07;95094.41;;;25.45;61.08
3428;BME280;1727;42.624;23.406;2023-07-13T03:55:34;95086.81;;;25.67;60.17
3428;BME280;1727;42.624;23.406;2023-07-13T03:58:25;95088.31;;;25.87;59.12
3428;BME280;1727;42.624;23.406;2023-07-13T04:00:52;95082.66;;;25.96;58.82
3428;BME280;1727;42.624;23.406;2023-07-13T04:03:19;95091.06;;;26.06;58.04
3428;BME280;1727;42.624;23.406;2023-07-13T04:05:46;95093.41;;;26.20;57.89
3428;BME280;1727;42.624;23.406;2023-07-13T04:08:13;95089.00;;;26.26;57.82
3428;BME280;1727;42.624;23.406;2023-07-13T04:10:40;95089.34;;;26.36;57.57
3428;BME280;1727;42.624;23.406;2023-07-13T04:13:07;95088.47;;;26.42;57.51
3428;BME280;1727;42.624;23.406;2023-07-13T04:15:35;95095.41;;;26.50;57.68
3428;BME280;1727;42.624;23.406;2023-07-13T04:18:04;95083.50;;;26.58;57.25
3428;BME280;1727;42.624;23.406;2023-07-13T04:20:34;95086.53;;;26.68;56.83
3428;BME280;1727;42.624;23.406;2023-07-13T04:23:03;95092.41;;;26.76;56.81
3428;BME280;1727;42.624;23.406;2023-07-13T04:25:30;95099.34;;;26.84;56.37
3428;BME280;1727;42.624;23.406;2023-07-13T04:27:57;95104.00;;;26.95;56.61
3428;BME280;1727;42.624;23.406;2023-07-13T04:30:24;95109.00;;;27.10;56.89
3428;BME280;1727;42.624;23.406;2023-07-13T04:32:54;95105.75;;;26.71;58.04
3428;BME280;1727;42.624;23.406;2023-07-13T04:35:21;95112.06;;;26.40;58.55
3428;BME280;1727;42.624;23.406;2023-07-13T04:37:49;95114.03;;;26.70;58.32
3428;BME280;1727;42.624;23.406;2023-07-13T04:40:16;95107.38;;;27.09;57.39
3428;BME280;1727;42.624;23.406;2023-07-13T04:42:46;95116.00;;;27.48;56.02
3428;BME280;1727;42.624;23.406;2023-07-13T04:45:14;95115.75;;;27.79;54.82
3428;BME280;1727;42.624;23.406;2023-07-13T04:47:41;95112.84;;;28.04;53.96
3428;BME280;1727;42.624;23.406;2023-07-13T04:50:15;95124.75;;;28.26;52.04
3428;BME280;1727;42.624;23.406;2023-07-13T04:52:46;95125.59;;;28.38;52.50
3428;BME280;1727;42.624;23.406;2023-07-13T04:55:13;95126.03;;;28.47;51.52
3428;BME280;1727;42.624;23.406;2023-07-13T04:57:40;95132.00;;;28.73;52.07
3428;BME280;1727;42.624;23.406;2023-07-13T05:00:07;95129.66;;;28.99;51.68
3428;BME280;1727;42.624;23.406;2023-07-13T05:02:43;95125.81;;;29.24;51.35
3428;BME280;1727;42.624;23.406;2023-07-13T05:05:13;95125.75;;;29.47;51.69
3428;BME280;1727;42.624;23.406;2023-07-13T05:07:42;95142.78;;;29.76;50.58
3428;BME280;1727;42.624;23.406;2023-07-13T05:10:12;95139.13;;;29.82;50.46
3428;BME280;1727;42.624;23.406;2023-07-13T05:12:39;95149.44;;;30.02;50.67
3428;BME280;1727;42.624;23.406;2023-07-13T05:15:08;95142.38;;;30.13;49.58
3428;BME280;1727;42.624;23.406;2023-07-13T05:17:41;95142.19;;;30.03;49.53
3428;BME280;1727;42.624;23.406;2023-07-13T05:20:09;95142.72;;;29.88;49.86
3428;BME280;1727;42.624;23.406;2023-07-13T05:22:37;95138.16;;;30.05;49.97
3428;BME280;1727;42.624;23.406;2023-07-13T05:25:05;95140.78;;;30.34;49.05
3428;BME280;1727;42.624;23.406;2023-07-13T05:27:32;95140.81;;;30.67;47.64
3428;BME280;1727;42.624;23.406;2023-07-13T05:30:00;95136.06;;;30.96;46.91
3428;BME280;1727;42.624;23.406;2023-07-13T05:32:27;95146.75;;;31.25;47.44
3428;BME280;1727;42.624;23.406;2023-07-13T05:34:54;95146.47;;;31.48;47.71
3428;BME280;1727;42.624;23.406;2023-07-13T05:37:20;95146.47;;;31.48;46.17
3428;BME280;1727;42.624;23.406;2023-07-13T05:39:49;95147.84;;;31.51;46.74
3428;BME280;1727;42.624;23.406;2023-07-13T05:42:15;95147.09;;;31.55;46.58
3428;BME280;1727;42.624;23.406;2023-07-13T05:44:44;95139.38;;;31.69;46.92
3428;BME280;1727;42.624;23.406;2023-07-13T05:47:11;95151.13;;;32.01;46.03
3428;BME280;1727;42.624;23.406;2023-07-13T05:49:39;95151.56;;;32.20;44.46
3428;BME280;1727;42.624;23.406;2023-07-13T05:52:07;95157.78;;;32.48;43.64
3428;BME280;1727;42.624;23.406;2023-07-13T05:54:33;95151.09;;;32.65;43.37
3428;BME280;1727;42.624;23.406;2023-07-13T05:57:02;95142.31;;;32.85;42.75
3428;BME280;1727;42.624;23.406;2023-07-13T05:59:29;95142.72;;;33.09;42.82
3428;BME280;1727;42.624;23.406;2023-07-13T06:01:55;95142.72;;;33.14;41.88
3428;BME280;1727;42.624;23.406;2023-07-13T06:04:22;95156.34;;;33.24;42.72
3428;BME280;1727;42.624;23.406;2023-07-13T06:06:49;95147.50;;;33.44;41.25
3428;BME280;1727;42.624;23.406;2023-07-13T06:09:16;95141.03;;;33.61;39.38
3428;BME280;1727;42.624;23.406;2023-07-13T06:11:43;95134.25;;;33.68;39.98
3428;BME280;1727;42.624;23.406;2023-07-13T06:14:11;95135.41;;;33.93;39.85
3428;BME280;1727;42.624;23.406;2023-07-13T06:16:39;95129.44;;;34.21;39.33
3428;BME280;1727;42.624;23.406;2023-07-13T06:19:06;95130.56;;;34.45;38.39
3428;BME280;1727;42.624;23.406;2023-07-13T06:21:33;95134.63;;;34.63;38.36
3428;BME280;1727;42.624;23.406;2023-07-13T06:24:00;95135.44;;;34.59;37.50
3428;BME280;1727;42.624;23.406;2023-07-13T06:26:27;95142.25;;;34.36;39.54
3428;BME280;1727;42.624;23.406;2023-07-13T06:28:55;95134.59;;;34.07;39.03
3428;BME280;1727;42.624;23.406;2023-07-13T06:31:23;95142.41;;;33.78;40.29
3428;BME280;1727;42.624;23.406;2023-07-13T06:33:50;95134.66;;;33.30;42.28
3428;BME280;1727;42.624;23.406;2023-07-13T06:36:16;95131.09;;;32.77;42.28
3428;BME280;1727;42.624;23.406;2023-07-13T06:38:45;95134.25;;;33.01;43.24
3428;BME280;1727;42.624;23.406;2023-07-13T06:41:12;95134.59;;;33.19;42.35
3428;BME280;1727;42.624;23.406;2023-07-13T06:43:39;95137.97;;;33.42;42.68
3428;BME280;1727;42.624;23.406;2023-07-13T06:46:06;95135.13;;;33.16;41.29
3428;BME280;1727;42.624;23.406;2023-07-13T06:48:34;95135.19;;;33.26;42.37
3428;BME280;1727;42.624;23.406;2023-07-13T06:51:04;95145.31;;;33.36;43.06
3428;BME280;1727;42.624;23.406;2023-07-13T06:53:31;95144.78;;;33.49;42.68
3428;BME280;1727;42.624;23.406;2023-07-13T06:55:58;95142.94;;;33.55;42.77
3428;BME280;1727;42.624;23.406;2023-07-13T06:58:24;95140.69;;;33.47;43.95
3428;BME280;1727;42.624;23.406;2023-07-13T07:00:52;95131.50;;;33.58;43.68
3428;BME280;1727;42.624;23.406;2023-07-13T07:03:19;95134.53;;;33.77;42.21
3428;BME280;1727;42.624;23.406;2023-07-13T07:05:50;95135.69;;;33.96;43.06
3428;BME280;1727;42.624;23.406;2023-07-13T07:08:17;95134.88;;;33.96;44.14
3428;BME280;1727;42.624;23.406;2023-07-13T07:10:46;95127.16;;;33.77;41.99
3428;BME280;1727;42.624;23.406;2023-07-13T07:13:16;95127.72;;;33.79;42.03
3428;BME280;1727;42.624;23.406;2023-07-13T07:15:43;95137.50;;;33.65;41.52
3428;BME280;1727;42.624;23.406;2023-07-13T07:18:10;95137.94;;;33.32;41.70
3428;BME280;1727;42.624;23.406;2023-07-13T07:20:37;95135.22;;;33.32;41.95
3428;BME280;1727;42.624;23.406;2023-07-13T07:23:05;95132.56;;;33.52;42.83
3428;BME280;1727;42.624;23.406;2023-07-13T07:25:32;95143.50;;;33.62;41.76
3428;BME280;1727;42.624;23.406;2023-07-13T07:28:03;95140.59;;;33.84;41.84
3428;BME280;1727;42.624;23.406;2023-07-13T07:30:30;95131.59;;;33.89;41.03
3428;BME280;1727;42.624;23.406;2023-07-13T07:32:56;95132.81;;;33.45;41.71
3428;BME280;1727;42.624;23.406;2023-07-13T07:35:23;95127.75;;;33.12;42.74
3428;BME280;1727;42.624;23.406;2023-07-13T07:37:50;95134.44;;;33.41;43.29
3428;BME280;1727;42.624;23.406;2023-07-13T07:40:18;95124.16;;;33.69;42.03
3428;BME280;1727;42.624;23.406;2023-07-13T07:42:48;95119.00;;;33.77;41.66
3428;BME280;1727;42.624;23.406;2023-07-13T07:45:15;95122.63;;;33.88;41.81
3428;BME280;1727;42.624;23.406;2023-07-13T07:47:42;95130.06;;;32.88;42.59
3428;BME280;1727;42.624;23.406;2023-07-13T07:50:09;95114.69;;;33.04;42.22
3428;BME280;1727;42.624;23.406;2023-07-13T07:52:37;95111.41;;;33.02;42.78
3428;BME280;1727;42.624;23.406;2023-07-13T07:55:06;95115.53;;;33.14;42.63
3428;BME280;1727;42.624;23.406;2023-07-13T07:57:35;95117.03;;;33.42;42.72
3428;BME280;1727;42.624;23.406;2023-07-13T08:00:02;95104.84;;;33.70;42.29
3428;BME280;1727;42.624;23.406;2023-07-13T08:02:29;95108.66;;;33.79;41.69
3428;BME280;1727;42.624;23.406;2023-07-13T08:04:56;95105.19;;;33.99;40.95
3428;BME280;1727;42.624;23.406;2023-07-13T08:07:23;95104.66;;;34.17;40.28
3428;BME280;1727;42.624;23.406;2023-07-13T08:09:52;95097.81;;;34.10;41.64
3428;BME280;1727;42.624;23.406;2023-07-13T08:12:18;95093.38;;;33.53;41.69
3428;BME280;1727;42.624;23.406;2023-07-13T08:14:49;95088.50;;;33.55;42.34
3428;BME280;1727;42.624;23.406;2023-07-13T08:17:19;95079.78;;;33.68;41.72
3428;BME280;1727;42.624;23.406;2023-07-13T08:19:46;95074.91;;;33.70;42.23
3428;BME280;1727;42.624;23.406;2023-07-13T08:22:12;95067.06;;;33.89;42.38
3428;BME280;1727;42.624;23.406;2023-07-13T08:24:39;95067.28;;;33.82;41.85
3428;BME280;1727;42.624;23.406;2023-07-13T08:27:07;95077.41;;;33.92;42.17
3428;BME280;1727;42.624;23.406;2023-07-13T08:29:34;95068.41;;;33.92;41.80
3428;BME280;1727;42.624;23.406;2023-07-13T08:32:03;95063.50;;;34.09;42.86
3428;BME280;1727;42.624;23.406;2023-07-13T08:34:30;95057.53;;;33.86;42.67
3428;BME280;1727;42.624;23.406;2023-07-13T08:36:57;95059.72;;;33.84;42.89
3428;BME280;1727;42.624;23.406;2023-07-13T08:39:24;95066.78;;;33.85;42.99
3428;BME280;1727;42.624;23.406;2023-07-13T08:41:58;95056.97;;;33.95;40.84
3428;BME280;1727;42.624;23.406;2023-07-13T08:44:31;95063.22;;;34.10;42.22
3428;BME280;1727;42.624;23.406;2023-07-13T08:47:05;95056.44;;;34.03;41.65
3428;BME280;1727;42.624;23.406;2023-07-13T08:49:34;95054.81;;;34.12;42.49
3428;BME280;1727;42.624;23.406;2023-07-13T08:52:04;95049.34;;;33.92;40.92
3428;BME280;1727;42.624;23.406;2023-07-13T08:54:36;95059.44;;;33.96;41.33
3428;BME280;1727;42.624;23.406;2023-07-13T08:57:12;95052.34;;;34.00;41.82
3428;BME280;1727;42.624;23.406;2023-07-13T08:59:39;95055.31;;;34.09;42.99
3428;BME280;1727;42.624;23.406;2023-07-13T09:02:25;95060.78;;;33.94;40.84
3428;BME280;1727;42.624;23.406;2023-07-13T09:04:56;95052.34;;;33.90;40.38
3428;BME280;1727;42.624;23.406;2023-07-13T09:07:40;95066.22;;;33.99;41.51
3428;BME280;1727;42.624;23.406;2023-07-13T09:10:15;95067.06;;;33.99;40.90
3428;BME280;1727;42.624;23.406;2023-07-13T09:12:51;95073.84;;;34.07;40.06
3428;BME280;1727;42.624;23.406;2023-07-13T09:15:30;95097.00;;;33.99;39.90
3428;BME280;1727;42.624;23.406;2023-07-13T09:18:02;95098.38;;;33.97;39.32
3428;BME280;1727;42.624;23.406;2023-07-13T09:20:34;95092.94;;;33.92;40.00
3428;BME280;1727;42.624;23.406;2023-07-13T09:23:09;95096.75;;;33.85;39.71
3428;BME280;1727;42.624;23.406;2023-07-13T09:25:39;95097.28;;;33.98;40.30
3428;BME280;1727;42.624;23.406;2023-07-13T09:28:11;95089.41;;;34.16;40.18
3428;BME280;1727;42.624;23.406;2023-07-13T09:30:45;95090.47;;;34.10;40.40
3428;BME280;1727;42.624;23.406;2023-07-13T09:33:16;95084.75;;;34.17;41.21
3428;BME280;1727;42.624;23.406;2023-07-13T09:35:42;95087.50;;;34.17;41.14
3428;BME280;1727;42.624;23.406;2023-07-13T09:38:14;95098.09;;;34.29;40.63
3428;BME280;1727;42.624;23.406;2023-07-13T09:40:49;95086.94;;;34.35;41.00
3428;BME280;1727;42.624;23.406;2023-07-13T09:43:20;95093.22;;;34.36;39.69
3428;BME280;1727;42.624;23.406;2023-07-13T09:45:48;95093.47;;;34.39;41.38
3428;BME280;1727;42.624;23.406;2023-07-13T09:48:17;95074.94;;;34.06;39.52
3428;BME280;1727;42.624;23.406;2023-07-13T09:50:45;95080.41;;;34.01;39.16
3428;BME280;1727;42.624;23.406;2023-07-13T09:53:13;95076.78;;;33.54;40.84
3428;BME280;1727;42.624;23.406;2023-07-13T09:55:42;95063.69;;;33.41;41.54
3428;BME280;1727;42.624;23.406;2023-07-13T09:58:12;95060.16;;;33.46;42.50
3428;BME280;1727;42.624;23.406;2023-07-13T10:00:41;95057.13;;;33.32;41.60
3428;BME280;1727;42.624;23.406;2023-07-13T10:03:19;95047.22;;;33.06;41.83
3428;BME280;1727;42.624;23.406;2023-07-13T10:05:48;95057.31;;;33.10;41.24
3428;BME280;1727;42.624;23.406;2023-07-13T10:08:24;95037.22;;;33.21;41.99
3428;BME280;1727;42.624;23.406;2023-07-13T10:10:57;95045.38;;;33.21;39.37
3428;BME280;1727;42.624;23.406;2023-07-13T10:13:31;95041.09;;;33.36;41.04
3428;BME280;1727;42.624;23.406;2023-07-13T10:16:00;95038.41;;;33.56;41.47
3428;BME280;1727;42.624;23.406;2023-07-13T10:18:29;95031.06;;;33.77;40.96
3428;BME280;1727;42.624;23.406;2023-07-13T10:21:08;95033.50;;;33.53;40.74
3428;BME280;1727;42.624;23.406;2023-07-13T10:23:36;95036.22;;;33.53;40.18
3428;BME280;1727;42.624;23.406;2023-07-13T10:26:05;95030.22;;;33.51;39.82
3428;BME280;1727;42.624;23.406;2023-07-13T10:28:37;95031.06;;;33.56;41.32
3428;BME280;1727;42.624;23.406;2023-07-13T10:31:10;95027.53;;;33.61;40.35
3428;BME280;1727;42.624;23.406;2023-07-13T10:33:40;95021.00;;;33.72;39.59
3428;BME280;1727;42.624;23.406;2023-07-13T10:36:14;95012.88;;;33.93;41.22
3428;BME280;1727;42.624;23.406;2023-07-13T10:38:43;95020.22;;;33.87;39.96
3428;BME280;1727;42.624;23.406;2023-07-13T10:41:15;95017.50;;;33.92;40.72
3428;BME280;1727;42.624;23.406;2023-07-13T10:43:45;95018.28;;;34.03;40.00
3428;BME280;1727;42.624;23.406;2023-07-13T10:46:17;95008.53;;;33.86;39.48
3428;BME280;1727;42.624;23.406;2023-07-13T10:48:49;95011.19;;;33.76;40.42
3428;BME280;1727;42.624;23.406;2023-07-13T10:51:18;95009.88;;;33.89;40.56
3428;BME280;1727;42.624;23.406;2023-07-13T10:53:48;94995.97;;;33.96;39.59
3428;BME280;1727;42.624;23.406;2023-07-13T10:56:34;94994.88;;;34.12;38.94
3428;BME280;1727;42.624;23.406;2023-07-13T10:59:05;94986.66;;;34.27;39.19
3428;BME280;1727;42.624;23.406;2023-07-13T11:01:41;94980.66;;;34.30;40.07
3428;BME280;1727;42.624;23.406;2023-07-13T11:04:15;94978.75;;;34.31;38.66
3428;BME280;1727;42.624;23.406;2023-07-13T11:06:43;94974.13;;;34.26;39.01
3428;BME280;1727;42.624;23.406;2023-07-13T11:09:30;94973.59;;;34.24;38.39
3428;BME280;1727;42.624;23.406;2023-07-13T11:11:59;94971.13;;;34.43;39.84
3428;BME280;1727;42.624;23.406;2023-07-13T11:14:29;94969.75;;;34.45;38.23
3428;BME280;1727;42.624;23.406;2023-07-13T11:16:57;94964.22;;;34.61;37.90
3428;BME280;1727;42.624;23.406;2023-07-13T11:19:40;94964.50;;;34.64;38.27
3428;BME280;1727;42.624;23.406;2023-07-13T11:22:16;94950.00;;;34.69;36.37
3428;BME280;1727;42.624;23.406;2023-07-13T11:24:52;94949.81;;;34.55;36.25
3428;BME280;1727;42.624;23.406;2023-07-13T11:27:33;94950.28;;;34.67;35.65
3428;BME280;1727;42.624;23.406;2023-07-13T11:30:31;94948.09;;;34.74;34.79
3428;BME280;1727;42.624;23.406;2023-07-13T11:33:12;94946.16;;;34.85;36.83
3428;BME280;1727;42.624;23.406;2023-07-13T11:35:47;94938.44;;;34.97;36.21
3428;BME280;1727;42.624;23.406;2023-07-13T11:38:17;94942.06;;;34.83;34.35
3428;BME280;1727;42.624;23.406;2023-07-13T11:40:46;94936.88;;;34.86;34.89
3428;BME280;1727;42.624;23.406;2023-07-13T11:43:14;94935.22;;;34.90;32.81
3428;BME280;1727;42.624;23.406;2023-07-13T11:45:41;94941.44;;;35.01;33.18
3428;BME280;1727;42.624;23.406;2023-07-13T11:48:19;94943.78;;;35.18;33.55
3428;BME280;1727;42.624;23.406;2023-07-13T11:50:54;94938.56;;;35.21;33.85
3428;BME280;1727;42.624;23.406;2023-07-13T11:53:24;94940.81;;;35.14;34.71
3428;BME280;1727;42.624;23.406;2023-07-13T11:55:52;94928.06;;;35.04;34.61
3428;BME280;1727;42.624;23.406;2023-07-13T11:58:23;94927.00;;;35.00;33.63
3428;BME280;1727;42.624;23.406;2023-07-13T12:00:51;94923.94;;;35.07;33.54
3428;BME280;1727;42.624;23.406;2023-07-13T12:03:21;94929.91;;;35.14;33.78
3428;BME280;1727;42.624;23.406;2023-07-13T12:05:59;94926.56;;;35.22;34.30
3428;BME280;1727;42.624;23.406;2023-07-13T12:08:27;94917.03;;;35.20;34.48
3428;BME280;1727;42.624;23.406;2023-07-13T12:10:58;94915.47;;;35.08;33.61
3428;BME280;1727;42.624;23.406;2023-07-13T12:13:26;94909.41;;;35.17;34.22
3428;BME280;1727;42.624;23.406;2023-07-13T12:15:53;94909.06;;;35.28;33.79
3428;BME280;1727;42.624;23.406;2023-07-13T12:18:21;94910.41;;;35.36;32.66
3428;BME280;1727;42.624;23.406;2023-07-13T12:20:51;94906.06;;;35.30;32.75
3428;BME280;1727;42.624;23.406;2023-07-13T12:23:24;94902.44;;;35.39;33.13
3428;BME280;1727;42.624;23.406;2023-07-13T12:25:52;94896.75;;;35.36;32.42
3428;BME280;1727;42.624;23.406;2023-07-13T12:28:28;94891.78;;;35.43;32.43
3428;BME280;1727;42.624;23.406;2023-07-13T12:30:58;94884.31;;;35.54;32.51
3428;BME280;1727;42.624;23.406;2023-07-13T12:33:28;94882.03;;;35.66;32.45
3428;BME280;1727;42.624;23.406;2023-07-13T12:35:57;94873.31;;;35.64;32.90
3428;BME280;1727;42.624;23.406;2023-07-13T12:38:25;94880.44;;;35.60;33.51
3428;BME280;1727;42.624;23.406;2023-07-13T12:40:52;94882.59;;;35.34;31.66
3428;BME280;1727;42.624;23.406;2023-07-13T12:43:20;94876.31;;;35.28;31.77
3428;BME280;1727;42.624;23.406;2023-07-13T12:45:56;94870.88;;;35.28;32.54
3428;BME280;1727;42.624;23.406;2023-07-13T12:48:23;94863.72;;;35.32;33.52
3428;BME280;1727;42.624;23.406;2023-07-13T12:50:53;94860.75;;;35.29;33.28
3428;BME280;1727;42.624;23.406;2023-07-13T12:53:21;94864.84;;;35.31;33.58
3428;BME280;1727;42.624;23.406;2023-07-13T12:55:53;94859.34;;;35.36;32.89
3428;BME280;1727;42.624;23.406;2023-07-13T12:58:26;94855.75;;;35.41;32.33
3428;BME280;1727;42.624;23.406;2023-07-13T13:00:54;94854.56;;;35.52;32.10
3428;BME280;1727;42.624;23.406;2023-07-13T13:03:27;94857.78;;;35.59;31.55
3428;BME280;1727;42.624;23.406;2023-07-13T13:05:58;94855.53;;;35.66;31.30
3428;BME280;1727;42.624;23.406;2023-07-13T13:08:29;94855.47;;;35.72;30.41
3428;BME280;1727;42.624;23.406;2023-07-13T13:10:57;94844.09;;;35.64;30.86
3428;BME280;1727;42.624;23.406;2023-07-13T13:13:24;94829.91;;;35.62;31.16
3428;BME280;1727;42.624;23.406;2023-07-13T13:15:51;94837.94;;;35.78;31.45
3428;BME280;1727;42.624;23.406;2023-07-13T13:18:20;94830.84;;;35.77;30.46
3428;BME280;1727;42.624;23.406;2023-07-13T13:20:48;94831.94;;;35.76;30.09